OISL  Lar  Airport

Lar, Iran

Add Bookmark
ICAO OISL
IATA LRR
Type Airport
Status Operational
Latitude
27° 40' 28" N
27.674700
Longitude
54° 22' 59" E
54.383301
Local (GMT +3.5 ) UTC
Sep 26, 2016 10:28 pm Sep 26, 2016 18:58
Sunrise-Sunset Local UTC
Begin Civil Twilight 05:18 am 01:48
Sunrise 05:41 am 02:11
Sunset 05:45 pm 14:15
End Civil Twilight 06:08 pm 14:38
VFR
VFR
MVFR
MVFR
IFR
IFR
LIFR
LIFR
Unknown
Unavailable

Current Weather

METAR Observed VFR
OISL 261800Z 00000KT CAVOK 28/09 Q1012 Mon, Sep 26, 2016 @ 18:00 UTC
(58 Minutes ago)
Visual Flight Rules
Wind Visibility Conditions
Calm 10 km or more
  • No significant weather
Temperatures Readings Precipitation
Current Temp
28°C
82°F
Dewpoint
9°C
48°F
Humidity 30%
Altimeter 29.88" Hg
Sea Level Pressure 1,012 mb
Field Elevation
805 m
2,641 ft
None Recorded

Forecast Weather

TAF
TAF OISL 261100Z 2612/2718 30004MPS CAVOK
From To
Mon, Sep 26, 2016 @ 12:00 UTC Tue, Sep 27, 2016 @ 18:00 UTC
Wind Visibility Conditions
300° at 8 knots (15 kph) 10 km or more
  • No significant weather
-
-

CheckWX.com is intended as a tool to help pilots better visualize weather data. It is not intended as a substitute for an official weather briefing obtained from a Flight Service Station. CheckWX.com does not meet the FAA requirements for an official pre-flight weather briefing. Therefore, it's important that pilots still call and obtain an official FSS pre-flight weather briefing.

© 2007-2016 CheckWX.com
18:58:34 UTC